Weather at Nashville International Airport

Public forecast

Using degrees Fahrenheit for public forecast. Weather courtesy of forecast.io.

Current aviation weather report (METAR) for Nashville International Airport

Retrieved 2020/11/27 16:15 UTC (16 minutes ago):

KBNA 271615Z 00000KT 3SM BCFG BR SCT002 SCT200 BKN250 09/07 A3017 RMK AO2 BCFG N VIS LWR N T00890072

Aviation forecast (TAF) for Nashville International Airport

Retrieved 2020/11/27 12:39 UTC (4 hours ago):

TAF KBNA 271137Z 2712/2812 00000KT 5SM BR SKC TEMPO 2712/2713 1/4SM FG VV002 FM271400 VRB03KT P6SM SCT050 OVC250 FM280600 35005KT P6SM OVC050